createdAt,value
2019-03-16T00:01:12.853Z,75.52
2019-03-16T00:03:46.617Z,75.32
2019-03-16T00:06:21.013Z,74.38
2019-03-16T00:08:55.333Z,72.71
2019-03-16T00:11:29.773Z,72.18
2019-03-16T00:14:04.234Z,72.13
2019-03-16T00:16:38.631Z,72.17
2019-03-16T00:19:13.113Z,71.78
2019-03-16T00:21:47.586Z,70.96
2019-03-16T00:24:21.931Z,69.44
2019-03-16T00:26:56.330Z,71.18
2019-03-16T00:29:30.672Z,68.33
2019-03-16T00:32:13.521Z,67.20
2019-03-16T00:34:41.574Z,67.29
2019-03-16T00:37:16.150Z,66.27
2019-03-16T00:39:50.603Z,64.05
2019-03-16T00:42:25.440Z,60.50
2019-03-16T00:44:59.793Z,59.09
2019-03-16T00:47:34.725Z,60.23
2019-03-16T00:50:10.810Z,59.56
2019-03-16T00:52:45.261Z,59.06
2019-03-16T00:55:19.596Z,57.83
2019-03-16T00:57:54.108Z,57.71
2019-03-16T01:00:28.692Z,56.92
2019-03-16T01:03:03.189Z,56.51
2019-03-16T01:05:37.678Z,56.29
2019-03-16T01:08:12.312Z,56.30
2019-03-16T01:10:46.805Z,55.71
2019-03-16T01:13:21.405Z,54.95
2019-03-16T01:15:56.175Z,54.87
2019-03-16T01:18:30.522Z,54.96
2019-03-16T01:21:04.959Z,54.37
2019-03-16T01:23:39.420Z,53.88
2019-03-16T01:26:13.771Z,54.56
2019-03-16T01:28:48.209Z,54.33
2019-03-16T01:31:22.685Z,53.87
2019-03-16T01:33:57.182Z,53.80
2019-03-16T01:36:31.557Z,53.89
2019-03-16T01:39:07.929Z,54.30
2019-03-16T01:41:42.514Z,54.09
2019-03-16T01:44:17.039Z,53.21
2019-03-16T01:46:51.671Z,52.59
2019-03-16T01:49:26.463Z,53.08
2019-03-16T01:52:00.911Z,52.71
2019-03-16T01:54:35.586Z,52.19
2019-03-16T01:57:11.667Z,52.12
2019-03-16T01:59:46.144Z,52.14
2019-03-16T02:02:20.734Z,52.43
2019-03-16T02:04:55.233Z,52.40
2019-03-16T02:07:29.724Z,52.24
2019-03-16T02:10:05.018Z,51.97
2019-03-16T02:12:39.472Z,51.64
2019-03-16T02:15:13.847Z,52.37
2019-03-16T02:17:48.234Z,51.56
2019-03-16T02:20:22.779Z,51.33
2019-03-16T02:22:57.148Z,51.42
2019-03-16T02:25:31.651Z,51.25
2019-03-16T02:28:06.169Z,51.37
2019-03-16T02:30:40.845Z,51.35
2019-03-16T02:33:15.307Z,51.77
2019-03-16T02:35:49.803Z,52.07
2019-03-16T02:38:24.329Z,52.28
2019-03-16T02:40:58.703Z,51.63
2019-03-16T02:43:33.317Z,51.55
2019-03-16T02:46:07.771Z,51.87
2019-03-16T02:48:42.258Z,51.06
2019-03-16T02:51:16.707Z,50.99
2019-03-16T02:53:51.210Z,51.12
2019-03-16T02:56:25.557Z,51.20
2019-03-16T02:59:00.444Z,51.28
2019-03-16T03:01:34.911Z,51.90
2019-03-16T03:04:09.423Z,51.86
2019-03-16T03:06:44.136Z,51.96
2019-03-16T03:09:18.538Z,52.99
2019-03-16T03:11:53.001Z,52.69
2019-03-16T03:14:27.549Z,52.50
2019-03-16T03:17:02.118Z,52.40
2019-03-16T03:19:36.854Z,52.55
2019-03-16T03:22:11.153Z,52.95
2019-03-16T03:24:45.640Z,52.65
2019-03-16T03:27:20.125Z,52.56
2019-03-16T03:29:57.228Z,52.58
2019-03-16T03:32:30.999Z,52.61
2019-03-16T03:35:06.794Z,52.91
2019-03-16T03:37:41.034Z,53.21
2019-03-16T03:40:15.403Z,53.25
2019-03-16T03:42:49.854Z,53.40
2019-03-16T03:45:24.489Z,53.35
2019-03-16T03:47:58.756Z,53.19
2019-03-16T03:50:33.253Z,53.30
2019-03-16T03:53:07.704Z,53.61
2019-03-16T03:55:42.221Z,53.69
2019-03-16T03:58:16.756Z,53.99
2019-03-16T04:00:51.363Z,53.88
2019-03-16T04:03:25.780Z,54.43
2019-03-16T04:06:00.094Z,55.13
2019-03-16T04:08:34.489Z,54.93
2019-03-16T04:11:09.185Z,55.29
2019-03-16T04:13:43.764Z,55.58
2019-03-16T04:16:18.292Z,56.13
2019-03-16T04:18:52.855Z,55.64
2019-03-16T04:21:27.325Z,55.68
2019-03-16T04:24:01.684Z,55.63
2019-03-16T04:26:37.616Z,55.54
2019-03-16T04:29:12.219Z,55.47
2019-03-16T04:31:46.640Z,56.22
2019-03-16T04:34:28.951Z,55.52
2019-03-16T04:36:57.553Z,54.98
2019-03-16T04:39:31.937Z,54.79
2019-03-16T04:42:06.474Z,54.16
2019-03-16T04:44:40.944Z,53.08
2019-03-16T04:47:15.585Z,52.09
2019-03-16T04:49:50.169Z,51.30
2019-03-16T04:52:24.688Z,50.80
2019-03-16T04:54:59.194Z,51.57
2019-03-16T04:57:33.659Z,52.48
2019-03-16T05:00:13.361Z,53.89
2019-03-16T05:02:47.856Z,53.96
2019-03-16T05:05:22.300Z,54.08
2019-03-16T05:07:56.770Z,54.79
2019-03-16T05:10:31.464Z,53.57
2019-03-16T05:13:05.910Z,53.50
2019-03-16T05:15:40.322Z,52.27
2019-03-16T05:18:14.684Z,51.82
2019-03-16T05:20:49.200Z,52.14
2019-03-16T05:23:23.736Z,50.93
2019-03-16T05:25:59.534Z,50.95
2019-03-16T05:28:33.879Z,51.05
2019-03-16T05:31:08.310Z,51.17
2019-03-16T05:33:42.674Z,51.08
2019-03-16T05:36:17.290Z,50.58
2019-03-16T05:38:52.882Z,50.79
2019-03-16T05:41:28.922Z,50.34
2019-03-16T05:44:03.287Z,50.06
2019-03-16T05:46:37.810Z,49.90
2019-03-16T05:49:12.257Z,50.82
2019-03-16T05:51:46.666Z,49.72
2019-03-16T05:54:21.013Z,49.94
2019-03-16T05:56:55.519Z,48.91
2019-03-16T05:59:29.970Z,48.50
2019-03-16T06:02:04.397Z,48.58
2019-03-16T06:04:38.760Z,48.33
2019-03-16T06:07:13.275Z,47.38
2019-03-16T06:09:47.814Z,46.95
2019-03-16T06:12:22.490Z,46.67
2019-03-16T06:14:56.860Z,46.74
2019-03-16T06:17:31.375Z,45.82
2019-03-16T06:20:09.244Z,45.48
2019-03-16T06:22:43.880Z,44.59
2019-03-16T06:25:18.400Z,43.10
2019-03-16T06:27:52.670Z,45.09
2019-03-16T06:30:27.153Z,44.82
2019-03-16T06:33:01.633Z,45.27
2019-03-16T06:35:36.144Z,42.28
2019-03-16T06:38:10.638Z,43.61
2019-03-16T06:40:45.254Z,43.00
2019-03-16T06:43:19.710Z,42.90
2019-03-16T06:45:54.118Z,43.06
2019-03-16T06:48:28.672Z,40.80
2019-03-16T06:51:03.148Z,37.31
2019-03-16T06:53:37.715Z,41.39
2019-03-16T06:56:12.081Z,38.66
2019-03-16T06:58:46.585Z,41.42
2019-03-16T07:01:20.950Z,38.34
2019-03-16T07:03:55.471Z,41.70
2019-03-16T07:06:29.938Z,42.75
2019-03-16T07:09:07.513Z,43.38
2019-03-16T07:11:41.936Z,41.41
2019-03-16T07:14:16.290Z,42.20
2019-03-16T07:17:01.582Z,42.91
2019-03-16T07:19:27.000Z,43.57
2019-03-16T07:22:01.603Z,43.03
2019-03-16T07:24:36.534Z,43.25
2019-03-16T07:27:10.996Z,43.50
2019-03-16T07:29:45.576Z,43.39
2019-03-16T07:32:20.100Z,42.76
2019-03-16T07:34:54.718Z,43.55
2019-03-16T07:37:30.141Z,43.26
2019-03-16T07:40:07.000Z,43.39
2019-03-16T07:42:41.463Z,43.65
2019-03-16T07:45:16.083Z,44.49
2019-03-16T07:47:50.558Z,43.74
2019-03-16T07:50:25.069Z,44.35
2019-03-16T07:52:59.520Z,44.60
2019-03-16T07:55:34.062Z,44.82
2019-03-16T07:58:08.520Z,45.73
2019-03-16T08:00:43.168Z,44.29
2019-03-16T08:03:17.626Z,44.05
2019-03-16T08:05:52.173Z,45.34
2019-03-16T08:08:26.705Z,46.02
2019-03-16T08:11:01.297Z,45.09
2019-03-16T08:13:35.858Z,44.98
2019-03-16T08:16:10.190Z,46.53
2019-03-16T08:18:44.693Z,45.78
2019-03-16T08:21:19.334Z,45.94
2019-03-16T08:23:53.939Z,44.78
2019-03-16T08:26:28.536Z,45.33
2019-03-16T08:29:03.143Z,45.37
2019-03-16T08:31:39.023Z,45.14
2019-03-16T08:34:13.642Z,42.87
2019-03-16T08:36:48.243Z,44.30
2019-03-16T08:39:22.749Z,44.28
2019-03-16T08:41:57.232Z,44.89
2019-03-16T08:44:31.650Z,44.61
2019-03-16T08:47:06.026Z,43.84
2019-03-16T08:49:40.642Z,44.46
2019-03-16T08:52:15.196Z,43.72
2019-03-16T08:54:49.556Z,41.65
2019-03-16T08:57:24.006Z,39.45
2019-03-16T08:59:58.582Z,34.26
2019-03-16T09:02:32.957Z,34.73
2019-03-16T09:05:08.132Z,34.70
2019-03-16T09:07:42.625Z,34.88
2019-03-16T09:10:17.313Z,36.66
2019-03-16T09:12:55.254Z,32.51
2019-03-16T09:15:28.103Z,38.00
2019-03-16T09:18:02.637Z,39.22
2019-03-16T09:20:37.227Z,39.38
2019-03-16T09:23:11.707Z,39.74
2019-03-16T09:25:46.094Z,40.48
2019-03-16T09:28:20.450Z,39.69
2019-03-16T09:30:56.506Z,41.42
2019-03-16T09:33:31.124Z,38.98
2019-03-16T09:36:05.484Z,39.49
2019-03-16T09:38:39.879Z,38.29
2019-03-16T09:41:14.386Z,39.56
2019-03-16T09:43:48.863Z,35.80
2019-03-16T09:46:23.414Z,34.01
2019-03-16T09:48:58.232Z,37.86
2019-03-16T09:51:32.685Z,35.62
2019-03-16T09:54:07.411Z,37.55
2019-03-16T09:56:41.824Z,38.55
2019-03-16T09:59:16.334Z,38.51
2019-03-16T10:01:50.944Z,38.04
2019-03-16T10:04:27.140Z,37.41
2019-03-16T10:07:01.616Z,36.07
2019-03-16T10:09:36.208Z,36.83
2019-03-16T10:12:10.585Z,36.67
2019-03-16T10:14:45.126Z,36.45
2019-03-16T10:17:19.579Z,28.95
2019-03-16T10:19:53.999Z,35.47
2019-03-16T10:22:28.408Z,32.09
2019-03-16T10:25:02.796Z,36.78
2019-03-16T10:27:37.151Z,37.07
2019-03-16T10:30:13.005Z,37.71
2019-03-16T10:32:47.377Z,36.38
2019-03-16T10:35:21.961Z,37.30
2019-03-16T10:37:56.331Z,38.09
2019-03-16T10:40:30.933Z,38.62
2019-03-16T10:43:05.289Z,38.50
2019-03-16T10:45:40.062Z,38.89
2019-03-16T10:48:14.495Z,37.02
2019-03-16T10:50:49.430Z,37.30
2019-03-16T10:53:23.871Z,37.26
2019-03-16T10:55:58.471Z,37.32
2019-03-16T10:58:32.907Z,36.72
2019-03-16T11:01:07.554Z,36.58
2019-03-16T11:03:42.345Z,37.61
2019-03-16T11:06:16.945Z,36.77
2019-03-16T11:08:51.415Z,35.34
2019-03-16T12:21:42.122Z,26.96
2019-03-16T12:24:16.647Z,28.23
2019-03-16T12:26:51.164Z,30.11
2019-03-16T12:29:33.953Z,30.61
2019-03-16T12:32:01.960Z,31.28
2019-03-16T12:34:36.711Z,29.75
2019-03-16T12:37:11.229Z,29.70
2019-03-16T12:39:45.688Z,30.58
2019-03-16T12:42:20.302Z,32.15
2019-03-16T12:44:55.129Z,30.58
2019-03-16T12:47:31.195Z,32.65
2019-03-16T12:50:07.840Z,31.00
2019-03-16T12:52:42.336Z,32.52
2019-03-16T12:55:16.706Z,31.29
2019-03-16T12:57:51.375Z,31.93
2019-03-16T13:00:26.291Z,32.22
2019-03-16T13:03:00.671Z,31.73
2019-03-16T13:05:35.126Z,31.99
2019-03-16T13:08:09.645Z,33.15
2019-03-16T13:10:44.094Z,33.36
2019-03-16T13:13:18.498Z,33.07
2019-03-16T13:15:52.942Z,32.94
2019-03-16T13:18:27.409Z,32.51
2019-03-16T13:21:03.322Z,32.41
2019-03-16T13:23:38.215Z,32.79
2019-03-16T13:26:12.734Z,32.94
2019-03-16T13:28:47.199Z,32.75
2019-03-16T13:31:21.604Z,32.80
2019-03-16T13:33:56.101Z,33.01
2019-03-16T13:36:30.551Z,33.92
2019-03-16T13:39:06.701Z,33.82
2019-03-16T13:41:41.191Z,33.63
2019-03-16T13:44:15.556Z,34.19
2019-03-16T13:46:49.990Z,34.58
2019-03-16T13:49:24.688Z,33.98
2019-03-16T13:51:59.382Z,34.04
2019-03-16T13:54:34.386Z,34.35
2019-03-16T13:57:08.854Z,34.60
2019-03-16T13:59:43.436Z,34.82
2019-03-16T14:02:18.095Z,35.69
2019-03-16T14:04:52.456Z,34.55
2019-03-16T14:07:26.857Z,34.91
2019-03-16T14:10:01.311Z,34.56
2019-03-16T14:12:35.878Z,34.59
2019-03-16T14:15:10.438Z,34.57
2019-03-16T14:17:45.503Z,34.83
2019-03-16T14:20:20.238Z,34.52
2019-03-16T14:22:55.286Z,34.97
2019-03-16T14:25:29.956Z,34.51
2019-03-16T14:28:04.550Z,35.36
2019-03-16T14:30:41.366Z,35.21
2019-03-16T14:33:15.172Z,34.26
2019-03-16T14:35:49.654Z,34.06
2019-03-16T14:38:24.147Z,34.32
2019-03-16T14:40:58.682Z,34.54
2019-03-16T14:43:33.183Z,33.96
2019-03-16T14:46:07.668Z,34.98
2019-03-16T14:48:42.163Z,34.46
2019-03-16T14:51:16.672Z,35.38
2019-03-16T14:53:51.148Z,35.38
2019-03-16T14:56:25.653Z,35.22
2019-03-16T14:59:00.406Z,35.93
2019-03-16T15:01:34.932Z,35.35
2019-03-16T15:04:09.420Z,35.51
2019-03-16T15:06:43.884Z,35.42
2019-03-16T15:09:18.445Z,35.76
2019-03-16T15:11:52.845Z,34.90
2019-03-16T15:14:27.394Z,35.03
2019-03-16T15:17:02.075Z,34.98
2019-03-16T15:19:36.541Z,35.40
2019-03-16T15:22:12.222Z,35.10
2019-03-16T15:24:47.010Z,35.13
2019-03-16T15:27:21.524Z,35.30
2019-03-16T15:29:56.344Z,35.34
2019-03-16T15:32:30.806Z,35.41
2019-03-16T15:35:07.736Z,35.58
2019-03-16T15:37:42.097Z,35.93
2019-03-16T15:40:16.687Z,35.92
2019-03-16T15:42:51.045Z,36.15
2019-03-16T15:45:29.748Z,36.23
2019-03-16T15:48:04.278Z,36.38
2019-03-16T15:50:38.686Z,36.64
2019-03-16T15:53:13.142Z,36.62
2019-03-16T15:55:47.668Z,36.58
2019-03-16T15:58:22.125Z,36.81
2019-03-16T16:01:03.538Z,36.41
2019-03-16T16:03:32.955Z,37.21
2019-03-16T16:06:07.498Z,36.57
2019-03-16T16:08:41.961Z,36.70
2019-03-16T16:11:16.632Z,37.08
2019-03-16T16:13:51.108Z,38.31
2019-03-16T16:16:25.608Z,40.62
2019-03-16T16:19:00.349Z,41.62
2019-03-16T16:21:34.760Z,41.99
2019-03-16T16:24:09.209Z,43.63
2019-03-16T16:26:43.699Z,44.51
2019-03-16T16:29:18.373Z,44.69
2019-03-16T16:31:52.892Z,45.09
2019-03-16T16:34:27.498Z,45.79
2019-03-16T16:37:01.894Z,46.26
2019-03-16T16:39:36.533Z,46.48
2019-03-16T16:42:11.068Z,46.96
2019-03-16T16:44:45.689Z,47.36
2019-03-16T16:47:20.199Z,47.42
2019-03-16T16:49:55.021Z,47.75
2019-03-16T16:52:29.485Z,47.76
2019-03-16T16:55:04.679Z,48.25
2019-03-16T16:57:39.158Z,48.62
2019-03-16T17:00:16.236Z,48.48
2019-03-16T17:02:50.756Z,48.52
2019-03-16T17:05:25.375Z,48.68
2019-03-16T17:07:59.887Z,49.11
2019-03-16T17:10:34.443Z,48.97
2019-03-16T17:13:09.504Z,49.11
2019-03-16T17:15:44.034Z,48.92
2019-03-16T17:18:18.498Z,48.81
2019-03-16T17:20:53.103Z,48.92
2019-03-16T17:23:27.540Z,49.06
2019-03-16T17:26:02.201Z,49.09
2019-03-16T17:28:36.649Z,49.35
2019-03-16T17:31:12.491Z,49.37
2019-03-16T17:33:46.921Z,49.49
2019-03-16T17:36:22.381Z,49.64
2019-03-16T17:38:56.983Z,49.46
2019-03-16T17:41:31.641Z,49.73
2019-03-16T17:44:06.102Z,49.70
2019-03-16T17:46:40.637Z,49.80
2019-03-16T17:49:15.272Z,49.75
2019-03-16T17:51:51.411Z,49.65
2019-03-16T17:54:25.880Z,49.73
2019-03-16T17:57:02.121Z,49.84
2019-03-16T17:59:36.615Z,50.05
2019-03-16T18:02:11.134Z,50.16
2019-03-16T18:04:45.596Z,50.41
2019-03-16T18:07:20.128Z,50.31
2019-03-16T18:09:54.679Z,50.53
2019-03-16T18:12:29.131Z,50.60
2019-03-16T18:15:04.064Z,51.30
2019-03-16T18:17:38.415Z,51.33
2019-03-16T18:20:17.394Z,51.61
2019-03-16T18:22:54.368Z,52.00
2019-03-16T18:25:28.883Z,52.23
2019-03-16T18:28:04.826Z,52.57
2019-03-16T18:30:39.513Z,52.32
2019-03-16T18:33:14.024Z,53.02
2019-03-16T18:35:48.377Z,53.08
2019-03-16T18:38:22.729Z,53.59
2019-03-16T18:40:57.218Z,54.03
2019-03-16T18:43:31.745Z,54.19
2019-03-16T18:46:06.269Z,53.93
2019-03-16T18:48:40.865Z,54.03
2019-03-16T18:51:15.390Z,54.20
2019-03-16T18:53:51.317Z,54.19
2019-03-16T18:56:41.701Z,54.22
2019-03-16T18:59:16.593Z,54.05
2019-03-16T19:01:51.279Z,54.97
2019-03-16T19:04:25.798Z,54.94
2019-03-16T19:07:00.319Z,55.55
2019-03-16T19:09:34.772Z,55.31
2019-03-16T19:12:09.578Z,55.95
2019-03-16T19:14:44.126Z,56.04
2019-03-16T19:17:18.634Z,56.56
2019-03-16T19:19:53.044Z,56.50
2019-03-16T19:22:27.744Z,56.75
2019-03-16T19:25:02.155Z,57.40
2019-03-16T19:27:36.849Z,57.13
2019-03-16T19:30:13.444Z,57.53
2019-03-16T19:32:49.037Z,57.67
2019-03-16T19:35:23.476Z,57.77
2019-03-16T19:37:57.943Z,58.05
2019-03-16T19:40:32.835Z,58.40
2019-03-16T19:43:08.070Z,58.32
2019-03-16T19:45:42.815Z,58.90
2019-03-16T19:48:17.628Z,59.53
2019-03-16T19:50:52.657Z,60.04
2019-03-16T19:53:27.488Z,59.85
2019-03-16T19:56:02.642Z,60.27
2019-03-16T19:58:37.568Z,60.17
2019-03-16T20:01:12.728Z,60.47
2019-03-16T20:03:47.712Z,60.46
2019-03-16T20:06:25.877Z,60.59
2019-03-16T20:08:59.944Z,60.47
2019-03-16T20:11:34.880Z,60.37
2019-03-16T20:14:10.163Z,60.56
2019-03-16T20:16:45.060Z,60.74
2019-03-16T20:19:20.101Z,61.35
2019-03-16T20:21:55.472Z,61.07
2019-03-16T20:24:30.639Z,61.19
2019-03-16T20:27:05.799Z,61.07
2019-03-16T20:29:40.944Z,60.84
2019-03-16T20:32:17.022Z,60.23
2019-03-16T20:34:52.403Z,59.85
2019-03-16T20:37:27.435Z,58.86
2019-03-16T20:40:03.160Z,59.64
2019-03-16T20:42:38.284Z,58.78
2019-03-16T20:45:13.814Z,58.69
2019-03-16T20:47:49.219Z,58.81
2019-03-16T20:50:24.110Z,58.98
2019-03-16T20:52:59.123Z,59.13
2019-03-16T20:55:34.467Z,59.81
2019-03-16T20:58:10.334Z,59.88
2019-03-16T21:00:45.341Z,59.55
2019-03-16T21:03:20.210Z,61.11
2019-03-16T21:05:55.169Z,61.23
2019-03-16T21:08:30.241Z,61.20
2019-03-16T21:11:05.474Z,61.39
2019-03-16T21:13:40.431Z,61.42
2019-03-16T21:16:15.169Z,61.48
2019-03-16T21:18:50.291Z,61.74
2019-03-16T21:21:25.385Z,61.65
2019-03-16T21:24:00.367Z,61.81
2019-03-16T21:26:35.420Z,61.85
2019-03-16T21:29:10.168Z,61.87
2019-03-16T21:31:44.970Z,62.31
2019-03-16T21:34:19.742Z,62.17
2019-03-16T21:36:54.388Z,62.84
2019-03-16T21:39:29.424Z,62.78
2019-03-16T21:42:04.140Z,62.65
2019-03-16T21:44:38.688Z,62.63
2019-03-16T21:47:13.275Z,62.95
2019-03-16T21:49:47.879Z,63.11
2019-03-16T21:52:22.332Z,63.09
2019-03-16T21:54:56.888Z,63.17
2019-03-16T21:57:31.990Z,63.62
2019-03-16T22:00:14.690Z,63.89
2019-03-16T22:02:49.055Z,63.74
2019-03-16T22:05:23.546Z,63.48
2019-03-16T22:07:57.954Z,63.92
2019-03-16T22:10:32.417Z,63.88
2019-03-16T22:13:06.910Z,64.32
2019-03-16T22:15:41.286Z,63.84
2019-03-16T22:18:15.821Z,64.13
2019-03-16T22:20:51.232Z,63.79
2019-03-16T22:23:25.647Z,63.61
2019-03-16T22:26:00.014Z,64.40
2019-03-16T22:28:34.613Z,64.30
2019-03-16T22:31:09.272Z,65.08
2019-03-16T22:33:54.004Z,65.23
2019-03-16T22:36:19.949Z,65.72
2019-03-16T22:38:54.531Z,66.38
2019-03-16T22:41:28.832Z,66.84
2019-03-16T22:44:03.266Z,66.98
2019-03-16T22:46:37.760Z,67.20
2019-03-16T22:49:12.110Z,67.86
2019-03-16T22:51:46.566Z,68.15
2019-03-16T22:54:21.023Z,68.26
2019-03-16T22:56:55.549Z,68.35
2019-03-16T22:59:29.990Z,68.00
2019-03-16T23:02:05.853Z,67.91
2019-03-16T23:04:40.313Z,68.49
2019-03-16T23:07:14.628Z,68.79
2019-03-16T23:09:49.228Z,69.63
2019-03-16T23:12:23.559Z,70.14
2019-03-16T23:14:58.033Z,70.01
2019-03-16T23:17:32.452Z,70.48
2019-03-16T23:20:11.211Z,70.59
2019-03-16T23:22:45.593Z,71.22
2019-03-16T23:25:20.612Z,71.03
2019-03-16T23:27:54.976Z,71.68
2019-03-16T23:30:29.642Z,71.57
2019-03-16T23:33:04.009Z,71.65
2019-03-16T23:35:38.566Z,71.87
2019-03-16T23:38:15.047Z,72.32
2019-03-16T23:40:52.160Z,72.44
2019-03-16T23:43:26.714Z,72.47
2019-03-16T23:46:01.120Z,72.36
2019-03-16T23:48:35.482Z,72.42
2019-03-16T23:51:09.979Z,72.23
2019-03-16T23:53:44.444Z,72.65
2019-03-16T23:56:18.931Z,72.24
2019-03-16T23:58:53.430Z,72.47
